Terminal Aerodrome Forecast
Issued by NWS

Home | Current Version | Previous Version | Graphics & Text | Print | Product List | Glossary On
Versions: 1 2 3 4 5 6 7 8 9 10 11 12 13 14
000
FTUS43 KICT 051131
TAFHUT
TAF
KHUT 051131Z 0512/0612 16007KT P6SM SCT080 SCT250
     FM051600 19017G28KT P6SM SCT060
     FM060200 18012KT P6SM SCT035=

USA.gov is the U.S. government's official web portal to all federal, state and local government web resources and services.